createdAt,value
2022-07-29T00:02:50.602Z,99915.31
2022-07-29T00:05:54.219Z,99918.84
2022-07-29T00:09:00.905Z,99916.50
2022-07-29T00:12:03.969Z,99906.22
2022-07-29T00:15:07.104Z,99906.59
2022-07-29T00:18:09.987Z,99902.31
2022-07-29T00:21:12.606Z,99909.69
2022-07-29T00:24:15.860Z,99909.94
2022-07-29T00:27:19.076Z,99916.19
2022-07-29T00:30:22.013Z,99914.25
2022-07-29T00:33:24.784Z,99907.66
2022-07-29T00:36:27.640Z,99919.91
2022-07-29T00:39:30.428Z,99921.72
2022-07-29T00:42:45.351Z,99918.84
2022-07-29T00:45:48.221Z,99922.22
2022-07-29T00:48:51.161Z,99922.06
2022-07-29T00:51:54.435Z,99926.16
2022-07-29T00:54:58.122Z,99921.47
2022-07-29T00:58:01.415Z,99923.13
2022-07-29T01:01:04.357Z,99924.94
2022-07-29T01:04:07.257Z,99923.69
2022-07-29T01:07:10.651Z,99918.50
2022-07-29T01:10:14.647Z,99925.31
2022-07-29T01:13:17.629Z,99917.72
2022-07-29T01:16:32.119Z,99920.78
2022-07-29T01:19:53.879Z,99913.81
2022-07-29T01:23:37.915Z,99910.97
2022-07-29T01:26:46.931Z,99919.50
2022-07-29T01:29:58.403Z,99922.94
2022-07-29T01:33:10.503Z,99912.00
2022-07-29T01:36:17.682Z,99917.31
2022-07-29T01:39:33.574Z,99906.84
2022-07-29T01:42:45.773Z,99917.56
2022-07-29T01:46:01.357Z,99911.81
2022-07-29T01:49:16.509Z,99910.28
2022-07-29T01:52:42.549Z,99914.31
2022-07-29T01:55:46.882Z,99913.03
2022-07-29T01:58:50.397Z,99907.63
2022-07-29T02:01:55.029Z,99920.91
2022-07-29T02:04:58.441Z,99904.88
2022-07-29T02:08:02.330Z,99919.38
2022-07-29T02:11:05.535Z,99915.84
2022-07-29T02:14:08.509Z,99911.56
2022-07-29T02:17:12.187Z,99912.06
2022-07-29T02:20:14.930Z,99915.00
2022-07-29T02:23:22.559Z,99911.81
2022-07-29T02:26:26.613Z,99905.69
2022-07-29T02:29:31.408Z,99902.72
2022-07-29T02:32:36.874Z,99908.84
2022-07-29T02:35:41.834Z,99899.41
2022-07-29T02:38:58.690Z,99913.25
2022-07-29T02:42:08.087Z,99904.78
2022-07-29T02:45:11.132Z,99916.31
2022-07-29T02:48:16.336Z,99909.53
2022-07-29T02:51:44.504Z,99912.13
2022-07-29T02:54:55.042Z,99908.00
2022-07-29T02:58:09.707Z,99915.75
2022-07-29T03:01:19.442Z,99912.69
2022-07-29T03:04:26.052Z,99909.47
2022-07-29T03:07:29.021Z,99910.53
2022-07-29T03:10:32.519Z,99905.00
2022-07-29T03:13:36.121Z,99908.75
2022-07-29T03:16:41.269Z,99903.97
2022-07-29T03:19:44.417Z,99896.66
2022-07-29T03:22:49.803Z,99910.88
2022-07-29T03:25:52.748Z,99905.47
2022-07-29T03:28:55.878Z,99911.78
2022-07-29T03:31:58.946Z,99906.66
2022-07-29T03:35:01.925Z,99912.34
2022-07-29T03:38:05.267Z,99912.94
2022-07-29T03:41:11.041Z,99912.81
2022-07-29T03:44:15.171Z,99919.41
2022-07-29T03:47:21.478Z,99921.06
2022-07-29T03:50:26.350Z,99913.50
2022-07-29T03:53:29.593Z,99928.50
2022-07-29T03:56:35.938Z,99919.78
2022-07-29T03:59:39.008Z,99918.47
2022-07-29T04:02:46.033Z,99925.13
2022-07-29T04:06:09.172Z,99925.06
2022-07-29T04:09:12.068Z,99922.06
2022-07-29T04:12:14.934Z,99929.47
2022-07-29T04:15:17.508Z,99933.59
2022-07-29T04:18:20.395Z,99922.09
2022-07-29T04:21:23.080Z,99932.91
2022-07-29T04:24:26.243Z,99930.22
2022-07-29T04:27:28.800Z,99937.59
2022-07-29T04:30:32.887Z,99934.44
2022-07-29T04:33:35.508Z,99921.81
2022-07-29T04:36:38.826Z,99921.94
2022-07-29T04:39:41.410Z,99924.19
2022-07-29T04:42:47.207Z,99918.78
2022-07-29T04:45:50.651Z,99927.41
2022-07-29T04:48:53.632Z,99926.56
2022-07-29T04:51:56.228Z,99930.00
2022-07-29T04:54:59.032Z,99928.88
2022-07-29T04:58:01.611Z,99930.88
2022-07-29T05:01:05.534Z,99927.94
2022-07-29T05:04:08.113Z,99928.84
2022-07-29T05:07:11.047Z,99936.53
2022-07-29T05:10:13.652Z,99935.00
2022-07-29T05:13:17.132Z,99936.31
2022-07-29T05:16:19.843Z,99939.25
2022-07-29T05:19:22.762Z,99937.59
2022-07-29T05:22:25.481Z,99942.22
2022-07-29T05:25:42.931Z,99941.16
2022-07-29T05:28:47.097Z,99941.31
2022-07-29T05:31:49.988Z,99943.78
2022-07-29T05:34:52.522Z,99931.63
2022-07-29T05:37:55.368Z,99931.94
2022-07-29T05:40:59.688Z,99937.69
2022-07-29T05:44:03.201Z,99935.53
2022-07-29T05:47:07.479Z,99938.06
2022-07-29T05:50:10.442Z,99932.66
2022-07-29T05:53:18.971Z,99935.19
2022-07-29T05:56:22.986Z,99932.84
2022-07-29T05:59:30.131Z,99939.34
2022-07-29T06:02:33.411Z,99934.50
2022-07-29T06:05:36.395Z,99945.34
2022-07-29T06:08:39.555Z,99950.09
2022-07-29T06:11:42.653Z,99949.53
2022-07-29T06:14:45.176Z,99949.97
2022-07-29T06:18:00.510Z,99944.81
2022-07-29T06:21:09.628Z,99946.25
2022-07-29T06:24:13.881Z,99957.75
2022-07-29T06:27:17.342Z,99950.13
2022-07-29T06:30:20.304Z,99946.84
2022-07-29T06:33:22.871Z,99951.88
2022-07-29T06:36:26.051Z,99942.28
2022-07-29T06:39:29.018Z,99946.94
2022-07-29T06:42:32.114Z,99950.59
2022-07-29T06:45:35.519Z,99950.88
2022-07-29T06:48:39.331Z,99952.38
2022-07-29T06:51:42.207Z,99963.69
2022-07-29T06:54:49.040Z,99957.44
2022-07-29T06:57:51.672Z,99959.88
2022-07-29T07:00:55.176Z,99962.91
2022-07-29T07:03:57.782Z,99958.16
2022-07-29T07:07:00.650Z,99960.00
2022-07-29T07:10:04.315Z,99958.69
2022-07-29T07:13:07.589Z,99959.62
2022-07-29T07:16:10.144Z,99957.34
2022-07-29T07:19:13.001Z,99957.94
2022-07-29T07:22:16.794Z,99951.69
2022-07-29T07:25:19.732Z,99955.25
2022-07-29T07:28:24.588Z,99955.34
2022-07-29T07:31:27.982Z,99952.66
2022-07-29T07:34:31.172Z,99958.19
2022-07-29T07:37:34.426Z,99946.19
2022-07-29T07:40:36.991Z,99950.00
2022-07-29T07:43:39.859Z,99958.19
2022-07-29T07:46:42.403Z,99953.84
2022-07-29T07:49:46.018Z,99951.16
2022-07-29T07:52:53.531Z,99952.56
2022-07-29T07:56:12.863Z,99950.63
2022-07-29T07:59:15.768Z,99946.50
2022-07-29T08:02:18.789Z,99947.87
2022-07-29T08:05:21.824Z,99948.37
2022-07-29T08:08:24.461Z,99945.09
2022-07-29T08:11:27.497Z,99946.16
2022-07-29T08:14:31.828Z,99946.66
2022-07-29T08:17:35.395Z,99939.53
2022-07-29T08:20:39.949Z,99936.75
2022-07-29T08:23:59.736Z,99936.12
2022-07-29T08:27:12.853Z,99937.38
2022-07-29T08:30:27.720Z,99926.81
2022-07-29T08:33:30.275Z,99939.75
2022-07-29T08:36:34.223Z,99926.97
2022-07-29T08:39:36.758Z,99927.09
2022-07-29T08:42:39.654Z,99929.41
2022-07-29T08:45:51.115Z,99926.56
2022-07-29T08:48:54.326Z,99924.31
2022-07-29T08:51:58.764Z,99924.06
2022-07-29T08:55:02.056Z,99913.75
2022-07-29T08:58:05.938Z,99913.50
2022-07-29T09:01:12.406Z,99911.25
2022-07-29T09:04:16.705Z,99902.13
2022-07-29T09:07:19.966Z,99905.16
2022-07-29T09:10:22.664Z,99906.38
2022-07-29T09:13:26.005Z,99911.25
2022-07-29T09:16:54.960Z,99909.37
2022-07-29T09:20:09.648Z,99907.78
2022-07-29T09:23:12.335Z,99901.72
2022-07-29T09:26:30.455Z,99901.75
2022-07-29T09:29:36.226Z,99892.94
2022-07-29T09:33:03.588Z,99895.03
2022-07-29T09:36:06.878Z,99896.19
2022-07-29T09:39:10.125Z,99893.41
2022-07-29T09:42:14.077Z,99879.00
2022-07-29T09:45:33.871Z,99879.19
2022-07-29T09:48:36.423Z,99877.91
2022-07-29T09:51:39.759Z,99867.44
2022-07-29T09:54:42.296Z,99869.94
2022-07-29T09:57:45.860Z,99866.38
2022-07-29T10:00:49.799Z,99860.94
2022-07-29T10:03:53.542Z,99861.81
2022-07-29T10:07:04.415Z,99858.28
2022-07-29T10:10:08.500Z,99861.41
2022-07-29T10:13:16.395Z,99852.28
2022-07-29T10:16:19.653Z,99859.62
2022-07-29T10:19:22.404Z,99855.00
2022-07-29T10:22:51.565Z,99859.34
2022-07-29T10:25:47.830Z,99852.56
2022-07-29T10:28:50.673Z,99848.87
2022-07-29T10:31:53.385Z,99854.75
2022-07-29T10:35:21.050Z,99853.75
2022-07-29T10:38:52.194Z,99842.19
2022-07-29T10:42:17.030Z,99845.28
2022-07-29T10:45:23.555Z,99833.59
2022-07-29T10:48:26.678Z,99829.06
2022-07-29T10:52:00.818Z,99829.50
2022-07-29T10:55:05.798Z,99841.97
2022-07-29T10:58:18.885Z,99832.97
2022-07-29T11:01:37.456Z,99835.69
2022-07-29T11:04:44.670Z,99833.66
2022-07-29T11:08:20.389Z,99816.16
2022-07-29T11:11:29.777Z,99810.81
2022-07-29T11:14:57.809Z,99813.25
2022-07-29T11:18:01.634Z,99810.22
2022-07-29T11:21:04.548Z,99804.22
2022-07-29T11:27:54.276Z,99803.94
2022-07-29T11:34:33.263Z,99796.44
2022-07-29T11:37:42.617Z,99790.72
2022-07-29T11:41:20.951Z,99789.31
2022-07-29T11:45:08.791Z,99788.94
2022-07-29T11:48:31.483Z,99784.38
2022-07-29T11:51:34.843Z,99778.91
2022-07-29T11:58:04.317Z,99768.62
2022-07-29T12:01:07.411Z,99768.47
2022-07-29T12:04:10.269Z,99773.06
2022-07-29T12:07:01.470Z,99791.91
2022-07-29T12:07:15.514Z,99767.38
2022-07-29T12:10:19.772Z,99755.91
2022-07-29T12:13:37.229Z,99761.75
2022-07-29T12:16:40.756Z,99759.22
2022-07-29T12:19:44.765Z,99753.97
2022-07-29T12:22:49.488Z,99753.75
2022-07-29T12:25:52.160Z,99741.31
2022-07-29T12:28:56.935Z,99740.19
2022-07-29T12:32:00.603Z,99737.41
2022-07-29T12:35:10.490Z,99734.16
2022-07-29T12:38:14.012Z,99728.66
2022-07-29T12:41:16.956Z,99722.81
2022-07-29T12:44:19.505Z,99717.63
2022-07-29T12:47:22.567Z,99719.53
2022-07-29T12:50:26.655Z,99709.03
2022-07-29T12:53:30.017Z,99713.56
2022-07-29T12:56:42.642Z,99705.09
2022-07-29T12:59:46.519Z,99701.53
2022-07-29T13:02:56.486Z,99703.91
2022-07-29T13:05:59.692Z,99692.53
2022-07-29T13:09:19.888Z,99688.59
2022-07-29T13:12:23.668Z,99695.03
2022-07-29T13:15:26.173Z,99696.03
2022-07-29T13:18:33.044Z,99687.31
2022-07-29T13:21:37.169Z,99671.72
2022-07-29T13:24:57.181Z,99673.13
2022-07-29T13:28:00.788Z,99667.38
2022-07-29T13:31:04.576Z,99674.31
2022-07-29T13:34:07.146Z,99669.50
2022-07-29T13:37:10.580Z,99663.56
2022-07-29T13:40:14.874Z,99667.63
2022-07-29T13:43:17.759Z,99658.34
2022-07-29T13:46:20.474Z,99658.69
2022-07-29T13:49:23.913Z,99652.06
2022-07-29T13:52:26.595Z,99645.97
2022-07-29T13:55:29.552Z,99649.16
2022-07-29T13:58:32.297Z,99648.97
2022-07-29T14:01:36.346Z,99652.78
2022-07-29T14:04:39.827Z,99644.81
2022-07-29T14:07:42.402Z,99631.28
2022-07-29T14:10:45.334Z,99633.13
2022-07-29T14:13:47.921Z,99626.56
2022-07-29T14:16:52.476Z,99626.56
2022-07-29T14:19:55.928Z,99627.53
2022-07-29T14:23:01.692Z,99626.72
2022-07-29T14:26:04.246Z,99617.38
2022-07-29T14:29:11.719Z,99611.00
2022-07-29T14:32:15.950Z,99612.28
2022-07-29T14:35:18.917Z,99612.75
2022-07-29T14:38:21.605Z,99612.44
2022-07-29T14:41:29.778Z,99605.75
2022-07-29T14:44:32.491Z,99597.56
2022-07-29T14:47:35.726Z,99598.72
2022-07-29T14:50:38.928Z,99600.69
2022-07-29T14:53:41.775Z,99596.09
2022-07-29T14:56:46.300Z,99592.22
2022-07-29T14:59:49.995Z,99580.84
2022-07-29T15:03:01.985Z,99582.25
2022-07-29T15:06:05.527Z,99569.34
2022-07-29T15:09:08.105Z,99577.41
2022-07-29T15:12:11.519Z,99578.84
2022-07-29T15:15:14.092Z,99570.19
2022-07-29T15:18:17.067Z,99575.81
2022-07-29T15:21:28.673Z,99573.50
2022-07-29T15:24:31.840Z,99569.16
2022-07-29T15:27:34.437Z,99566.22
2022-07-29T15:30:41.798Z,99559.94
2022-07-29T15:33:44.401Z,99563.16
2022-07-29T15:36:52.787Z,99562.47
2022-07-29T15:39:59.916Z,99555.16
2022-07-29T15:43:06.787Z,99556.12
2022-07-29T15:46:28.204Z,99554.50
2022-07-29T15:49:47.644Z,99544.16
2022-07-29T15:52:51.942Z,99535.25
2022-07-29T15:55:54.751Z,99540.00
2022-07-29T15:58:57.909Z,99541.44
2022-07-29T16:02:00.955Z,99545.97
2022-07-29T16:05:04.172Z,99540.00
2022-07-29T16:08:11.839Z,99534.63
2022-07-29T16:11:14.727Z,99527.81
2022-07-29T16:14:18.226Z,99528.13
2022-07-29T16:17:21.201Z,99531.72
2022-07-29T16:20:24.002Z,99535.44
2022-07-29T16:23:26.860Z,99536.09
2022-07-29T16:26:29.443Z,99537.06
2022-07-29T16:29:32.599Z,99542.25
2022-07-29T16:32:35.283Z,99538.69
2022-07-29T16:35:40.387Z,99543.25
2022-07-29T16:38:47.321Z,99535.91
2022-07-29T16:41:50.422Z,99526.81
2022-07-29T16:44:53.010Z,99529.25
2022-07-29T16:48:00.146Z,99525.84
2022-07-29T16:51:04.205Z,99530.22
2022-07-29T16:54:08.700Z,99528.44
2022-07-29T16:57:11.862Z,99529.50
2022-07-29T17:00:16.651Z,99529.84
2022-07-29T17:03:19.523Z,99530.13
2022-07-29T17:06:22.447Z,99532.84
2022-07-29T17:09:25.177Z,99532.31
2022-07-29T17:12:28.045Z,99520.94
2022-07-29T17:15:30.685Z,99522.22
2022-07-29T17:18:39.374Z,99526.88
2022-07-29T17:21:48.815Z,99520.94
2022-07-29T17:24:52.189Z,99525.09
2022-07-29T17:28:00.578Z,99535.56
2022-07-29T17:31:04.023Z,99532.44
2022-07-29T17:34:07.453Z,99540.75
2022-07-29T17:37:11.914Z,99537.56
2022-07-29T17:40:14.540Z,99531.28
2022-07-29T17:43:17.722Z,99530.03
2022-07-29T17:46:22.246Z,99525.94
2022-07-29T17:49:25.194Z,99525.06
2022-07-29T17:52:27.779Z,99535.25
2022-07-29T17:55:30.684Z,99534.25
2022-07-29T17:58:34.105Z,99528.50
2022-07-29T18:01:38.233Z,99527.41
2022-07-29T18:04:41.151Z,99529.94
2022-07-29T18:07:43.709Z,99538.88
2022-07-29T18:10:46.618Z,99532.59
2022-07-29T18:13:49.144Z,99536.87
2022-07-29T18:16:52.009Z,99537.88
2022-07-29T18:19:54.566Z,99546.59
2022-07-29T18:22:57.473Z,99547.41
2022-07-29T18:26:00.098Z,99548.94
2022-07-29T18:29:02.960Z,99552.41
2022-07-29T18:32:05.964Z,99557.88
2022-07-29T18:35:09.231Z,99553.31
2022-07-29T18:38:11.787Z,99560.44
2022-07-29T18:41:14.621Z,99561.34
2022-07-29T18:44:18.207Z,99560.13
2022-07-29T18:47:21.111Z,99571.41
2022-07-29T18:50:29.661Z,99577.19
2022-07-29T18:53:32.916Z,99577.53
2022-07-29T18:56:39.516Z,99581.19
2022-07-29T18:59:43.394Z,99574.59
2022-07-29T19:02:46.079Z,99588.91
2022-07-29T19:05:49.516Z,99595.03
2022-07-29T19:08:52.519Z,99596.63
2022-07-29T19:11:58.004Z,99598.09
2022-07-29T19:15:03.774Z,99600.88
2022-07-29T19:18:07.213Z,99600.72
2022-07-29T19:21:10.226Z,99607.88
2022-07-29T19:24:15.555Z,99599.69
2022-07-29T19:27:18.930Z,99611.09
2022-07-29T19:30:22.185Z,99617.78
2022-07-29T19:33:24.751Z,99616.09
2022-07-29T19:36:27.629Z,99609.31
2022-07-29T19:39:35.384Z,99606.06
2022-07-29T19:42:38.544Z,99612.34
2022-07-29T19:45:41.248Z,99611.50
2022-07-29T19:48:45.021Z,99612.13
2022-07-29T19:51:47.599Z,99601.19
2022-07-29T19:54:50.644Z,99597.16
2022-07-29T19:57:53.287Z,99600.72
2022-07-29T20:00:56.204Z,99593.91
2022-07-29T20:03:59.139Z,99593.69
2022-07-29T20:07:02.149Z,99592.28
2022-07-29T20:10:06.868Z,99595.34
2022-07-29T20:13:09.573Z,99598.03
2022-07-29T20:16:12.664Z,99603.81
2022-07-29T20:19:15.649Z,99603.28
2022-07-29T20:22:21.175Z,99610.19
2022-07-29T20:25:24.371Z,99607.44
2022-07-29T20:28:27.678Z,99607.16
2022-07-29T20:31:30.635Z,99614.84
2022-07-29T20:34:33.646Z,99625.50
2022-07-29T20:37:52.107Z,99621.94
2022-07-29T20:40:58.941Z,99610.75
2022-07-29T20:44:02.657Z,99610.19
2022-07-29T20:47:05.650Z,99618.41
2022-07-29T20:50:10.134Z,99616.25
2022-07-29T20:53:13.643Z,99619.53
2022-07-29T20:56:16.195Z,99623.62
2022-07-29T20:59:19.211Z,99625.78
2022-07-29T21:02:21.751Z,99630.94
2022-07-29T21:05:24.783Z,99635.84
2022-07-29T21:08:27.703Z,99635.53
2022-07-29T21:11:44.530Z,99635.53
2022-07-29T21:14:48.131Z,99641.78
2022-07-29T21:17:59.435Z,99628.75
2022-07-29T21:21:02.051Z,99641.22
2022-07-29T21:24:07.703Z,99644.50
2022-07-29T21:27:32.986Z,99635.25
2022-07-29T21:30:36.778Z,99645.06
2022-07-29T21:33:44.992Z,99641.22
2022-07-29T21:36:48.900Z,99640.69
2022-07-29T21:39:51.787Z,99650.50
2022-07-29T21:42:54.706Z,99648.03
2022-07-29T21:45:58.187Z,99653.69
2022-07-29T21:49:01.100Z,99653.62
2022-07-29T21:52:04.635Z,99682.19
2022-07-29T21:55:07.967Z,99676.16
2022-07-29T21:58:15.373Z,99693.31
2022-07-29T22:01:18.361Z,99693.00
2022-07-29T22:04:21.577Z,99690.50
2022-07-29T22:07:24.119Z,99694.81
2022-07-29T22:10:28.749Z,99696.47
2022-07-29T22:13:31.700Z,99709.53
2022-07-29T22:16:34.726Z,99703.47
2022-07-29T22:19:37.275Z,99700.44
2022-07-29T22:22:40.499Z,99700.31
2022-07-29T22:25:43.087Z,99703.19
2022-07-29T22:28:46.288Z,99697.59
2022-07-29T22:31:48.985Z,99690.81
2022-07-29T22:34:51.973Z,99699.78
2022-07-29T22:37:54.693Z,99696.25
2022-07-29T22:41:01.551Z,99690.50
2022-07-29T22:44:06.000Z,99688.84
2022-07-29T22:47:08.903Z,99690.16
2022-07-29T22:50:11.609Z,99701.81
2022-07-29T22:53:14.466Z,99702.03
2022-07-29T22:56:17.992Z,99703.16
2022-07-29T22:59:20.936Z,99692.53
2022-07-29T23:02:23.504Z,99694.41
2022-07-29T23:05:26.453Z,99685.81
2022-07-29T23:08:28.984Z,99692.28
2022-07-29T23:11:31.848Z,99685.38
2022-07-29T23:14:39.916Z,99692.41
2022-07-29T23:17:42.846Z,99689.13
2022-07-29T23:20:45.498Z,99689.69
2022-07-29T23:23:49.187Z,99689.06
2022-07-29T23:26:51.719Z,99677.81
2022-07-29T23:29:54.545Z,99677.69
2022-07-29T23:32:57.180Z,99670.31
2022-07-29T23:35:59.975Z,99668.59
2022-07-29T23:39:02.562Z,99669.00
2022-07-29T23:42:05.486Z,99671.91
2022-07-29T23:45:09.040Z,99660.16
2022-07-29T23:48:12.045Z,99670.12
2022-07-29T23:51:14.531Z,99663.50
2022-07-29T23:54:17.396Z,99658.72
2022-07-29T23:57:22.899Z,99652.75
